Lytham Saint Annes, United Kingdom

6:52 AM BST on July 04, 2015 (GMT +0100)
Lytham Green - RCC | | Change Station
CLOSE
Current Station
Personal Weather Station
Location: Lytham St Annes, LANCASHIRE
Elevation: 16 ft
Nearby Weather Stations

Elev 16 ft 53.73 °N, 2.96 °W | Updated 2 minutes ago

Scattered Clouds
Scattered Clouds
59.6 °F
Feels Like 59.6 °F
N
1.0
Wind Variable Wind from East
Gusts 10.0 mph

Today
High -- | Low -- °F
--% Chance of Precip.
Yesterday
High -- | Low -- °F
Precip. -- in
4:47 AM 9:43 PM
Waning Gibbous, 94% visible
Pressure 29.92 in
Visibility 6.2 miles
Clouds Few 2300 ft
Scattered Clouds 2800 ft
Dew Point 58 °F
Humidity 93%
Rainfall 0.01 in
Snow Depth Not available.
UV 0 out of 12
Pollen Not available.
Air Quality Not available.
Flu Activity Not available.
METAR EGNH 040520Z 11013KT 9999 VCSH FEW023 SCT028 16/14 Q1013

More Conditions Fewer Conditions

Pressure 29.92 in
Visibility 6.2 miles
Clouds Few 2300 ft
Scattered Clouds 2800 ft
Dew Point 58 °F
Humidity 93%
Rainfall 0.01 in
Snow Depth Not available.
UV 0 out of 12
Pollen Not available.
Air Quality Not available.
Flu Activity Not available.
METAR EGNH 040520Z 11013KT 9999 VCSH FEW023 SCT028 16/14 Q1013

More Conditions Fewer Conditions

10-Day Weather Forecast

×

Almanac

Astronomy

Jul. 04, 2015 Rise Set
Actual Time
Civil Twilight
Nautical Twilight
Astronomical Twilight
Moon
Length of Visible Light
Length of Day
Tomorrow will be .
, % of the Moon is Illuminated

Today's Extremes

Country Highs Country Lows

Community

WunderPhotos

Upload Photos

1,834,923 photos uploaded!

WunderBlogs® & News

Nearby

Air Quality

  Air Quality AQ Index Pollutant
Not available.

Snow Depth

Station Depth Elevation

Earthquake Activity

City Distance Mag. Time & Date
Minimum magnitude displayed is 2.5.

Coastal Water Temperatures

Place Temperature

Stations

Nearby Weather Stations

Station Location Temp. Windchill Dew Point Humidity Wind Precip. Elev Updated Type